Time;durP1;ratioP1;P1;durP2;ratioP2;P2;SDS_P1;SDS_P2;PMS_P1;PMS_P2;Temp;Humidity;BMP_temperature;BMP_pressure;BME280_temperature;BME280_humidity;BME280_pressure;Samples;Min_cycle;Max_cycle;Signal;HPM_P1;HPM_P2
2022/03/04 00:00:06;;;;;;;;;23.50;20.50;;;;;21.80;40.53;101201.09;112076;1245;19052;-50
2022/03/04 00:02:52;;;;;;;;;25.00;21.00;;;;;21.80;40.51;101200.04;112071;1245;19808;-50
2022/03/04 00:05:18;;;;;;;;;19.50;18.00;;;;;21.80;40.53;101200.04;112039;1245;19972;-49
2022/03/04 00:07:44;;;;;;;;;25.00;18.00;;;;;21.79;40.56;101203.73;112056;1245;20363;-53
2022/03/04 00:10:10;;;;;;;;;20.00;18.00;;;;;21.80;40.46;101204.61;112077;1245;23805;-49
2022/03/04 00:12:36;;;;;;;;;19.50;17.50;;;;;21.80;40.42;101205.66;112049;1245;20002;-51
2022/03/04 00:15:02;;;;;;;;;21.00;19.00;;;;;21.79;40.45;101204.45;112023;1245;19100;-49
2022/03/04 00:17:28;;;;;;;;;23.50;19.00;;;;;21.79;40.48;101205.70;112020;1245;19283;-49
2022/03/04 00:19:53;;;;;;;;;20.00;18.00;;;;;21.79;40.45;101203.39;111976;1245;23200;-50
2022/03/04 00:22:19;;;;;;;;;17.00;17.00;;;;;21.79;40.26;101201.83;112090;1245;23067;-48
2022/03/04 00:24:45;;;;;;;;;21.00;18.00;;;;;21.79;40.33;101202.91;112080;1245;19350;-50
2022/03/04 00:27:11;;;;;;;;;18.00;16.00;;;;;21.79;40.39;101206.36;111977;1245;20135;-53
2022/03/04 00:29:37;;;;;;;;;17.00;17.00;;;;;21.78;40.28;101199.30;111827;1245;19033;-51
2022/03/04 00:32:03;;;;;;;;;18.00;15.00;;;;;21.79;40.33;101197.63;112049;1245;19658;-51
2022/03/04 00:34:29;;;;;;;;;21.50;18.00;;;;;21.79;40.21;101201.38;112044;1245;20111;-46
2022/03/04 00:36:54;;;;;;;;;15.00;15.00;;;;;21.80;40.29;101199.28;112070;1245;21522;-49
2022/03/04 00:39:20;;;;;;;;;19.00;18.00;;;;;21.79;40.33;101199.36;112046;1245;19323;-47
2022/03/04 00:41:46;;;;;;;;;21.00;19.00;;;;;21.79;40.21;101199.23;112024;1245;23972;-48
2022/03/04 00:44:12;;;;;;;;;22.00;17.00;;;;;21.79;40.18;101197.41;112045;1245;19081;-49
2022/03/04 00:46:38;;;;;;;;;22.00;18.50;;;;;21.79;40.20;101200.19;112079;1245;19413;-51
2022/03/04 00:49:04;;;;;;;;;18.50;17.00;;;;;21.79;40.38;101201.99;112057;1245;21363;-49
2022/03/04 00:51:30;;;;;;;;;18.00;15.00;;;;;21.79;40.29;101194.86;112012;1245;18968;-49
2022/03/04 00:53:55;;;;;;;;;20.00;17.00;;;;;21.78;40.10;101198.45;112039;1245;19189;-49
2022/03/04 00:56:21;;;;;;;;;21.00;17.00;;;;;21.78;40.10;101199.13;112044;1245;23909;-51
2022/03/04 00:58:47;;;;;;;;;17.00;17.00;;;;;21.79;40.09;101204.92;112052;1245;19547;-48
2022/03/04 01:01:13;;;;;;;;;20.00;16.00;;;;;21.79;40.16;101198.38;112053;1245;19532;-49
2022/03/04 01:03:39;;;;;;;;;18.00;17.00;;;;;21.79;40.15;101204.02;112045;1245;23107;-48
2022/03/04 01:06:05;;;;;;;;;16.33;16.00;;;;;21.78;40.25;101203.86;112057;1245;23591;-51
2022/03/04 01:08:31;;;;;;;;;18.50;16.50;;;;;21.78;40.20;101206.80;111772;1245;369324;-49
2022/03/04 01:10:57;;;;;;;;;20.00;17.50;;;;;21.77;40.30;101211.98;112054;1245;19991;-50
2022/03/04 01:13:22;;;;;;;;;17.00;16.00;;;;;21.77;40.33;101208.74;112060;1245;23171;-49
2022/03/04 01:15:48;;;;;;;;;17.00;14.00;;;;;21.77;40.20;101209.10;112070;1245;19425;-50
2022/03/04 01:18:14;;;;;;;;;17.00;14.00;;;;;21.76;40.33;101211.95;112049;1245;21929;-49
2022/03/04 01:20:40;;;;;;;;;17.00;16.00;;;;;21.75;40.42;101204.34;112063;1245;21670;-51
2022/03/04 01:23:06;;;;;;;;;18.00;17.00;;;;;21.75;40.14;101212.52;112060;1245;19237;-48
2022/03/04 01:25:32;;;;;;;;;16.00;14.00;;;;;21.74;40.28;101210.04;112055;1245;23787;-50
2022/03/04 01:27:58;;;;;;;;;20.00;17.67;;;;;21.74;40.20;101212.31;112068;1244;19428;-50
2022/03/04 01:30:24;;;;;;;;;17.00;16.00;;;;;21.74;40.18;101211.23;112035;1245;19861;-49
2022/03/04 01:32:50;;;;;;;;;21.00;15.00;;;;;21.75;40.23;101213.55;112043;1245;20021;-48
2022/03/04 01:35:16;;;;;;;;;19.00;16.00;;;;;21.75;40.20;101211.16;112049;1245;19018;-49
2022/03/04 01:37:41;;;;;;;;;15.00;13.50;;;;;21.74;40.14;101209.77;112028;1245;23131;-49
2022/03/04 01:40:07;;;;;;;;;14.00;13.50;;;;;21.74;40.05;101216.52;112082;1245;21382;-51
2022/03/04 01:42:33;;;;;;;;;14.00;13.00;;;;;21.74;40.03;101218.36;112066;1245;19123;-49
2022/03/04 01:44:59;;;;;;;;;14.00;14.00;;;;;21.75;40.19;101214.61;112062;1245;23396;-48
2022/03/04 01:47:25;;;;;;;;;17.50;15.00;;;;;21.75;40.19;101217.14;112031;1245;20147;-49
2022/03/04 01:49:51;;;;;;;;;16.00;14.00;;;;;21.75;40.05;101215.73;112065;1245;23170;-50
2022/03/04 01:52:17;;;;;;;;;16.50;16.00;;;;;21.74;40.04;101218.36;112058;1245;19248;-50
2022/03/04 01:54:43;;;;;;;;;14.00;13.00;;;;;21.74;39.89;101215.08;112041;1245;22424;-49
2022/03/04 01:57:09;;;;;;;;;16.00;13.00;;;;;21.73;40.03;101212.80;112032;1245;23119;-49
2022/03/04 01:59:35;;;;;;;;;16.00;16.00;;;;;21.73;40.05;101209.57;112075;1245;19303;-49
2022/03/04 02:02:00;;;;;;;;;16.50;13.00;;;;;21.74;39.96;101210.75;112067;1245;20239;-49
2022/03/04 02:04:27;;;;;;;;;14.00;13.00;;;;;21.75;39.96;101216.96;112063;1245;18982;-50
2022/03/04 02:06:53;;;;;;;;;17.33;13.00;;;;;21.74;39.96;101215.77;112043;1245;20788;-48
2022/03/04 02:09:19;;;;;;;;;14.00;13.00;;;;;21.74;40.03;101219.86;112066;1245;20027;-49
2022/03/04 02:11:45;;;;;;;;;14.00;14.00;;;;;21.74;39.83;101222.17;112060;1245;22668;-50
2022/03/04 02:14:10;;;;;;;;;13.50;12.50;;;;;21.74;40.07;101221.43;112045;1245;19347;-50
2022/03/04 02:16:36;;;;;;;;;16.00;13.00;;;;;21.73;39.92;101216.52;112084;1245;20013;-49
2022/03/04 02:19:02;;;;;;;;;13.00;13.00;;;;;21.72;39.90;101218.02;112064;1245;18993;-48
2022/03/04 02:21:28;;;;;;;;;12.00;12.00;;;;;21.72;39.98;101217.18;112052;1245;19765;-50
2022/03/04 02:23:54;;;;;;;;;14.00;13.00;;;;;21.72;39.97;101215.67;112074;1245;19948;-50
2022/03/04 02:26:20;;;;;;;;;17.50;13.50;;;;;21.72;39.87;101219.36;112053;1245;19091;-49
2022/03/04 02:28:45;;;;;;;;;13.00;10.00;;;;;21.71;40.12;101215.92;112078;1245;20475;-51
2022/03/04 02:31:11;;;;;;;;;12.00;9.00;;;;;21.71;39.99;101215.64;112045;1245;20050;-49
2022/03/04 02:33:37;;;;;;;;;10.00;10.00;;;;;21.71;39.98;101213.27;112057;1245;19036;-49
2022/03/04 02:36:03;;;;;;;;;12.00;12.00;;;;;21.70;40.12;101214.58;112073;1245;23144;-49
2022/03/04 02:38:29;;;;;;;;;14.00;13.00;;;;;21.70;39.86;101215.54;112009;1245;19991;-49
2022/03/04 02:40:55;;;;;;;;;13.00;11.00;;;;;21.69;39.83;101212.32;112076;1245;23106;-49
2022/03/04 02:43:21;;;;;;;;;13.00;10.00;;;;;21.70;39.96;101214.48;112057;1245;19449;-48
2022/03/04 02:45:47;;;;;;;;;10.00;10.00;;;;;21.69;40.10;101218.88;112056;1245;23308;-49
2022/03/04 02:48:12;;;;;;;;;13.00;12.00;;;;;21.69;39.91;101221.43;112082;1245;19142;-51
2022/03/04 02:50:38;;;;;;;;;13.00;11.00;;;;;21.71;39.87;101219.30;112058;1245;19212;-50
2022/03/04 02:53:04;;;;;;;;;13.00;13.00;;;;;21.70;39.85;101223.48;112044;1245;22982;-49
2022/03/04 02:55:30;;;;;;;;;10.00;10.00;;;;;21.69;40.04;101224.36;112072;1245;19195;-50
2022/03/04 02:57:56;;;;;;;;;13.50;13.00;;;;;21.69;39.93;101223.44;112074;1245;19270;-49
2022/03/04 03:00:22;;;;;;;;;13.00;13.00;;;;;21.70;40.17;101221.91;112024;1245;23323;-49
2022/03/04 03:02:47;;;;;;;;;12.00;12.00;;;;;21.69;39.99;101221.41;111986;1245;19166;-50
2022/03/04 03:05:13;;;;;;;;;13.00;12.00;;;;;21.69;39.90;101220.38;112074;1245;19268;-50
2022/03/04 03:07:39;;;;;;;;;10.00;10.00;;;;;21.70;39.92;101223.38;112054;1245;23196;-49
2022/03/04 03:10:05;;;;;;;;;12.00;10.00;;;;;21.70;39.97;101223.20;112069;1245;19198;-50
2022/03/04 03:12:31;;;;;;;;;10.00;9.00;;;;;21.70;39.94;101219.20;112051;1245;19419;-50
2022/03/04 03:14:57;;;;;;;;;12.50;11.00;;;;;21.70;39.97;101219.52;112019;1245;23812;-49
2022/03/04 03:17:23;;;;;;;;;9.00;9.00;;;;;21.71;40.07;101222.71;112072;1245;19840;-50
2022/03/04 03:19:48;;;;;;;;;12.00;10.00;;;;;21.70;40.01;101223.31;112119;1245;19266;-50
2022/03/04 03:22:16;;;;;;;;;9.50;9.00;;;;;21.71;39.98;101219.45;112056;1245;20205;-51
2022/03/04 03:24:42;;;;;;;;;9.33;9.00;;;;;21.70;40.07;101218.63;112086;1245;19340;-49
2022/03/04 03:27:08;;;;;;;;;9.00;9.00;;;;;21.69;40.02;101216.92;112062;1245;19318;-49
2022/03/04 03:29:34;;;;;;;;;10.00;10.00;;;;;21.70;40.00;101222.77;112079;1245;21400;-49
2022/03/04 03:31:59;;;;;;;;;12.00;12.00;;;;;21.69;40.09;101220.13;112049;1245;20908;-49
2022/03/04 03:34:25;;;;;;;;;8.50;8.00;;;;;21.69;39.96;101225.25;112047;1245;19341;-49
2022/03/04 03:36:51;;;;;;;;;10.00;9.00;;;;;21.70;39.83;101221.57;112043;1245;20030;-50
2022/03/04 03:39:17;;;;;;;;;10.00;10.00;;;;;21.68;39.74;101216.70;112037;1245;19108;-52
2022/03/04 03:41:43;;;;;;;;;10.00;9.67;;;;;21.68;39.98;101217.75;112062;1245;19548;-49
2022/03/04 03:44:10;;;;;;;;;12.00;10.00;;;;;21.67;40.02;101216.19;112015;1245;23257;-49
2022/03/04 03:46:35;;;;;;;;;10.00;9.00;;;;;21.68;40.11;101221.60;112063;1245;19387;-49
2022/03/04 03:49:01;;;;;;;;;12.00;10.00;;;;;21.67;39.83;101220.45;112047;1245;19335;-50
2022/03/04 03:51:27;;;;;;;;;10.00;8.00;;;;;21.68;39.86;101225.05;112072;1245;23318;-49
2022/03/04 03:53:53;;;;;;;;;10.00;10.00;;;;;21.67;39.76;101220.96;112072;1245;19151;-49
2022/03/04 03:56:19;;;;;;;;;9.00;8.00;;;;;21.67;39.83;101225.54;112080;1245;19281;-50
2022/03/04 03:58:45;;;;;;;;;9.33;9.00;;;;;21.66;39.99;101221.80;112099;1245;21617;-51
2022/03/04 04:01:11;;;;;;;;;9.00;9.00;;;;;21.66;39.96;101223.12;112057;1245;19105;-48
2022/03/04 04:03:37;;;;;;;;;13.00;8.50;;;;;21.66;39.94;101223.59;112033;1245;19600;-50
2022/03/04 04:06:03;;;;;;;;;9.00;9.00;;;;;21.67;39.71;101222.23;112054;1245;19850;-49
2022/03/04 04:08:29;;;;;;;;;9.00;8.50;;;;;21.66;39.85;101224.68;112049;1245;23690;-49
2022/03/04 04:10:54;;;;;;;;;10.00;9.00;;;;;21.66;39.81;101232.95;112056;1245;21830;-51
2022/03/04 04:13:20;;;;;;;;;9.50;8.00;;;;;21.66;39.94;101232.16;112059;1245;23841;-52
2022/03/04 04:15:46;;;;;;;;;8.50;8.00;;;;;21.66;39.85;101239.07;112028;1245;19122;-49
2022/03/04 04:18:12;;;;;;;;;8.50;8.50;;;;;21.66;39.80;101242.14;112026;1245;19186;-51
2022/03/04 04:20:38;;;;;;;;;12.00;10.00;;;;;21.66;39.72;101238.48;112051;1245;20136;-53
2022/03/04 04:23:04;;;;;;;;;8.00;8.00;;;;;21.66;39.83;101238.77;112069;1245;19041;-50
2022/03/04 04:25:30;;;;;;;;;10.00;9.00;;;;;21.66;39.83;101236.52;112049;1245;19134;-52
2022/03/04 04:27:56;;;;;;;;;12.00;9.00;;;;;21.65;40.01;101239.20;112047;1245;20035;-51
2022/03/04 04:30:21;;;;;;;;;8.00;7.00;;;;;21.65;39.74;101236.48;112080;1245;19077;-52
2022/03/04 04:32:47;;;;;;;;;9.00;8.00;;;;;21.64;39.82;101241.48;112081;1245;19292;-51
2022/03/04 04:35:13;;;;;;;;;8.00;8.00;;;;;21.65;39.95;101241.35;112066;1245;21330;-52
2022/03/04 04:37:39;;;;;;;;;8.50;8.50;;;;;21.66;39.75;101239.62;112049;1245;19507;-50
2022/03/04 04:40:05;;;;;;;;;12.00;10.00;;;;;21.64;39.71;101236.55;112084;1245;19313;-52
2022/03/04 04:42:31;;;;;;;;;12.00;9.50;;;;;21.65;39.78;101236.83;112056;1245;21388;-53
2022/03/04 04:44:57;;;;;;;;;12.50;8.00;;;;;21.65;39.79;101235.38;112043;1245;19104;-52
2022/03/04 04:47:22;;;;;;;;;9.00;8.00;;;;;21.65;39.91;101232.70;112070;1245;22919;-51
2022/03/04 04:49:48;;;;;;;;;8.00;8.00;;;;;21.64;40.03;101230.17;112066;1245;20557;-52
2022/03/04 04:52:14;;;;;;;;;5.00;5.00;;;;;21.64;40.07;101235.86;112036;1245;19217;-52
2022/03/04 04:54:40;;;;;;;;;6.00;6.00;;;;;21.63;39.92;101236.80;112049;1245;19513;-53
2022/03/04 04:57:06;;;;;;;;;8.00;8.00;;;;;21.63;39.96;101233.44;112054;1245;19932;-51
2022/03/04 04:59:32;;;;;;;;;10.00;9.00;;;;;21.62;39.96;101237.12;112065;1245;19238;-52
2022/03/04 05:01:58;;;;;;;;;8.50;8.00;;;;;21.64;39.88;101240.59;112074;1245;23770;-52
2022/03/04 05:04:24;;;;;;;;;8.00;8.00;;;;;21.63;40.02;101245.23;112069;1245;20014;-50
2022/03/04 05:06:50;;;;;;;;;9.00;8.00;;;;;21.63;40.07;101242.13;112043;1245;23589;-52
2022/03/04 05:09:16;;;;;;;;;5.00;5.00;;;;;21.63;39.93;101245.58;112045;1245;19219;-51
2022/03/04 05:11:42;;;;;;;;;8.00;8.00;;;;;21.64;39.85;101245.51;112005;1245;20006;-51
2022/03/04 05:14:07;;;;;;;;;8.00;8.00;;;;;21.63;39.83;101244.69;112060;1245;19204;-52
2022/03/04 05:16:33;;;;;;;;;8.00;8.00;;;;;21.63;39.85;101247.41;112037;1245;19821;-51
2022/03/04 05:18:59;;;;;;;;;8.00;6.00;;;;;21.63;39.86;101250.32;112083;1245;20005;-51
2022/03/04 05:21:25;;;;;;;;;8.50;6.00;;;;;21.63;39.99;101249.26;112021;1245;23487;-52
2022/03/04 05:24:00;;;;;;;;;6.00;6.00;;;;;21.62;39.82;101247.15;112055;1245;19320;-51
2022/03/04 05:26:26;;;;;;;;;7.33;6.00;;;;;21.64;39.84;101248.81;112069;1245;23217;-51
2022/03/04 05:28:52;;;;;;;;;8.00;6.00;;;;;21.63;40.00;101245.30;112107;1245;19239;-52
2022/03/04 05:31:18;;;;;;;;;9.00;8.00;;;;;21.62;39.88;101244.59;112047;1245;19161;-51
2022/03/04 05:33:44;;;;;;;;;8.00;8.00;;;;;21.64;39.96;101248.02;112007;1245;23710;-51
2022/03/04 05:36:10;;;;;;;;;6.00;6.00;;;;;21.66;39.93;101246.20;112008;1245;19651;-55
2022/03/04 05:38:36;;;;;;;;;7.00;6.00;;;;;21.70;40.33;101247.59;112020;1245;19897;-52
2022/03/04 05:41:02;;;;;;;;;7.00;7.00;;;;;21.68;40.41;101248.70;112024;1245;22370;-52
2022/03/04 05:43:28;;;;;;;;;8.00;6.00;;;;;21.69;40.86;101253.11;112021;1245;18941;-51
2022/03/04 05:45:53;;;;;;;;;6.00;6.00;;;;;21.69;40.68;101259.27;112021;1245;19096;-52
2022/03/04 05:48:19;;;;;;;;;9.00;8.00;;;;;21.67;40.60;101257.01;112043;1245;20526;-53
2022/03/04 05:50:45;;;;;;;;;10.00;8.00;;;;;21.70;40.65;101259.95;112032;1245;19257;-51
2022/03/04 05:53:11;;;;;;;;;5.50;5.00;;;;;21.71;40.55;101261.81;112007;1245;19549;-51
2022/03/04 05:55:37;;;;;;;;;8.00;6.00;;;;;21.75;40.50;101263.89;112037;1245;21735;-53
2022/03/04 05:58:03;;;;;;;;;8.00;8.00;;;;;21.73;40.54;101269.41;112034;1245;19040;-53
2022/03/04 06:00:29;;;;;;;;;9.00;8.50;;;;;21.64;39.90;101265.70;112049;1245;19317;-52
2022/03/04 06:02:55;;;;;;;;;8.00;8.00;;;;;21.52;39.14;101269.73;112010;1245;23954;-51
2022/03/04 06:05:21;;;;;;;;;8.00;8.00;;;;;21.32;37.92;101265.50;112032;1245;19009;-54
2022/03/04 06:07:47;;;;;;;;;10.00;9.00;;;;;21.42;38.65;101270.45;112043;1245;19544;-53
2022/03/04 06:10:13;;;;;;;;;9.00;9.00;;;;;21.49;38.57;101271.96;112064;1245;23544;-53
2022/03/04 06:12:39;;;;;;;;;7.00;6.00;;;;;21.55;38.00;101274.05;112033;1245;19009;-51
2022/03/04 06:15:04;;;;;;;;;8.00;6.00;;;;;21.59;38.37;101274.03;112040;1245;19280;-52
2022/03/04 06:17:31;;;;;;;;;6.00;6.00;;;;;21.62;39.00;101277.88;112040;1245;20054;-52
2022/03/04 06:19:56;;;;;;;;;10.00;9.00;;;;;21.67;38.85;101279.92;112039;1245;19287;-54
2022/03/04 06:22:22;;;;;;;;;8.00;8.00;;;;;21.73;39.09;101285.45;111984;1245;19180;-50
2022/03/04 06:24:48;;;;;;;;;9.00;8.00;;;;;21.72;39.46;101283.34;112006;1245;20012;-52
2022/03/04 06:27:14;;;;;;;;;8.00;7.00;;;;;21.73;39.44;101283.74;112034;1245;19180;-52
2022/03/04 06:29:40;;;;;;;;;8.00;6.00;;;;;21.73;39.71;101288.35;111994;1245;19204;-52
2022/03/04 06:32:06;;;;;;;;;8.00;6.00;;;;;21.72;40.22;101287.33;112052;1245;19848;-51
2022/03/04 06:34:32;;;;;;;;;9.00;6.00;;;;;21.71;40.15;101291.64;112034;1245;19093;-52
2022/03/04 06:36:58;;;;;;;;;8.00;8.00;;;;;21.72;40.37;101291.45;112068;1245;19123;-53
2022/03/04 06:39:24;;;;;;;;;8.00;8.00;;;;;21.74;40.67;101292.16;112016;1245;23336;-52
2022/03/04 06:41:50;;;;;;;;;6.00;6.00;;;;;21.72;40.83;101300.42;112016;1245;19174;-52
2022/03/04 06:44:16;;;;;;;;;6.00;6.00;;;;;21.74;40.85;101297.52;112058;1245;19799;-50
2022/03/04 06:46:42;;;;;;;;;9.00;8.00;;;;;21.79;40.81;101308.02;112047;1245;22800;-52
2022/03/04 06:49:10;;;;;;;;;8.00;6.00;;;;;21.80;40.96;101308.23;112045;1245;19198;-52
2022/03/04 06:51:36;;;;;;;;;5.00;5.00;;;;;21.81;41.46;101312.63;111998;1244;19887;-51
2022/03/04 06:54:02;;;;;;;;;9.00;8.00;;;;;21.87;41.42;101311.13;112021;1245;20134;-51
2022/03/04 06:56:27;;;;;;;;;6.00;6.00;;;;;21.90;41.51;101310.08;112045;1245;18920;-52
2022/03/04 06:58:53;;;;;;;;;6.00;6.00;;;;;21.91;41.79;101313.73;112082;1245;19087;-52
2022/03/04 07:01:19;;;;;;;;;8.00;6.00;;;;;21.92;41.92;101313.35;112054;1245;22295;-54
2022/03/04 07:03:46;;;;;;;;;8.00;8.00;;;;;21.90;42.50;101308.96;112036;1244;22002;-51
2022/03/04 07:06:12;;;;;;;;;9.00;8.00;;;;;21.86;42.72;101314.65;112056;1245;19731;-51
2022/03/04 07:08:37;;;;;;;;;7.00;6.00;;;;;21.81;42.44;101317.96;112016;1245;23173;-51
2022/03/04 07:11:03;;;;;;;;;8.50;8.00;;;;;21.80;42.19;101318.47;112055;1245;18948;-52
2022/03/04 07:13:29;;;;;;;;;10.00;10.00;;;;;21.81;42.06;101319.27;112070;1245;19818;-53
2022/03/04 07:15:55;;;;;;;;;7.00;6.00;;;;;21.77;41.77;101318.20;112009;1245;20256;-52
2022/03/04 07:18:23;;;;;;;;;10.00;8.50;;;;;21.78;41.85;101320.18;112020;1245;20780;-53
2022/03/04 07:20:48;;;;;;;;;8.00;8.00;;;;;21.74;42.16;101325.63;112001;1245;19551;-54
2022/03/04 07:23:15;;;;;;;;;8.00;8.00;;;;;21.75;42.28;101331.17;111983;1245;20046;-52
2022/03/04 07:25:41;;;;;;;;;8.50;7.00;;;;;21.80;42.19;101331.95;112039;1245;20706;-53
2022/03/04 07:28:08;;;;;;;;;9.50;8.00;;;;;21.82;42.29;101332.89;112028;1245;19320;-50
2022/03/04 07:30:34;;;;;;;;;8.67;8.00;;;;;21.81;42.30;101329.74;112015;1245;20398;-51
2022/03/04 07:33:00;;;;;;;;;8.50;8.00;;;;;21.82;42.44;101340.05;111993;1245;19031;-53
2022/03/04 07:35:25;;;;;;;;;6.00;6.00;;;;;21.84;42.30;101339.42;111887;1245;20861;-52
2022/03/04 07:37:51;;;;;;;;;8.00;6.00;;;;;21.85;41.99;101341.02;111905;1245;19925;-52
2022/03/04 07:40:17;;;;;;;;;9.00;9.00;;;;;21.84;42.00;101338.88;112014;1245;19935;-52
2022/03/04 07:42:43;;;;;;;;;7.00;6.00;;;;;21.84;42.44;101351.64;112031;1245;21688;-51
2022/03/04 07:45:10;;;;;;;;;6.00;6.00;;;;;21.82;42.44;101350.27;112033;1245;19943;-51
2022/03/04 07:47:36;;;;;;;;;6.00;5.67;;;;;21.82;42.62;101352.48;112030;1245;19198;-52
2022/03/04 07:50:02;;;;;;;;;8.00;8.00;;;;;21.77;42.45;101351.66;111997;1245;19227;-52
2022/03/04 07:52:31;;;;;;;;;9.00;8.00;;;;;21.78;42.61;101353.84;112044;1245;23864;-51
2022/03/04 07:54:57;;;;;;;;;11.00;9.00;;;;;21.76;42.55;101357.11;111999;1245;19234;-51
2022/03/04 07:57:23;;;;;;;;;8.00;6.00;;;;;21.74;42.48;101365.88;112023;1245;19426;-51
2022/03/04 07:59:49;;;;;;;;;8.00;6.00;;;;;21.77;42.35;101369.49;112031;1245;20109;-51
2022/03/04 08:02:15;;;;;;;;;9.00;8.00;;;;;21.81;42.30;101368.13;112015;1245;18999;-50
2022/03/04 08:04:41;;;;;;;;;9.00;8.50;;;;;21.83;42.37;101371.19;112049;1245;23294;-51
2022/03/04 08:07:06;;;;;;;;;8.00;6.00;;;;;21.84;42.39;101372.75;112008;1245;20178;-51
2022/03/04 08:09:32;;;;;;;;;8.00;6.00;;;;;21.87;42.96;101375.14;112017;1245;19210;-53
2022/03/04 08:11:58;;;;;;;;;6.00;5.00;;;;;21.89;42.65;101380.43;112024;1245;19109;-54
2022/03/04 08:14:24;;;;;;;;;12.00;10.00;;;;;21.86;42.70;101380.52;112020;1245;20032;-51
2022/03/04 08:16:50;;;;;;;;;9.00;8.00;;;;;21.78;42.05;101376.66;112095;1245;19556;-49
2022/03/04 08:19:16;;;;;;;;;12.00;10.00;;;;;21.75;41.98;101384.46;112028;1245;19360;-52
2022/03/04 08:21:43;;;;;;;;;8.00;8.00;;;;;21.75;41.83;101385.77;112023;1245;20414;-52
2022/03/04 08:24:10;;;;;;;;;11.00;9.00;;;;;21.75;42.02;101388.64;112029;1245;19297;-51
2022/03/04 08:26:38;;;;;;;;;9.00;9.00;;;;;21.74;42.03;101389.33;112037;1245;19227;-51
2022/03/04 08:29:04;;;;;;;;;6.00;6.00;;;;;21.72;42.20;101386.68;112037;1245;20763;-51
2022/03/04 08:31:30;;;;;;;;;12.00;10.00;;;;;21.72;42.09;101392.44;112053;1245;23225;-53
2022/03/04 08:33:56;;;;;;;;;12.50;10.00;;;;;21.71;42.13;101392.41;112009;1245;19225;-51
2022/03/04 08:36:22;;;;;;;;;9.50;9.00;;;;;21.71;42.04;101396.53;112015;1245;20441;-50
2022/03/04 08:38:48;;;;;;;;;9.00;8.00;;;;;21.71;42.13;101398.24;112024;1245;18984;-51
2022/03/04 08:41:13;;;;;;;;;8.50;8.00;;;;;21.70;42.23;101400.27;111998;1245;19192;-51
2022/03/04 08:43:40;;;;;;;;;10.00;8.00;;;;;21.70;42.05;101399.60;112031;1245;23097;-51
2022/03/04 08:46:07;;;;;;;;;10.00;10.00;;;;;21.69;42.35;101400.95;112037;1245;19272;-52
2022/03/04 08:48:33;;;;;;;;;8.33;8.00;;;;;21.69;42.16;101401.12;112015;1245;19586;-51
2022/03/04 08:50:59;;;;;;;;;8.00;8.00;;;;;21.70;42.02;101404.71;112001;1245;20038;-51
2022/03/04 08:53:27;;;;;;;;;9.00;8.50;;;;;21.69;42.19;101406.06;112028;1245;23711;-52
2022/03/04 08:55:53;;;;;;;;;8.00;6.00;;;;;21.69;42.18;101413.34;111744;1245;21817;-51
2022/03/04 08:58:19;;;;;;;;;8.00;6.00;;;;;21.70;41.91;101413.38;111973;1245;19990;-51
2022/03/04 09:00:45;;;;;;;;;9.00;8.50;;;;;21.70;41.89;101412.20;112046;1245;19370;-51
2022/03/04 09:03:11;;;;;;;;;8.50;8.00;;;;;21.72;41.97;101420.47;112034;1244;19142;-52
2022/03/04 09:05:36;;;;;;;;;8.00;8.00;;;;;21.71;41.92;101417.10;112030;1245;23430;-52
2022/03/04 09:08:02;;;;;;;;;8.00;8.00;;;;;21.72;42.00;101419.77;112027;1245;19123;-53
2022/03/04 09:10:28;;;;;;;;;8.00;8.00;;;;;21.72;41.84;101412.05;112032;1245;19189;-52
2022/03/04 09:12:54;;;;;;;;;8.50;7.00;;;;;21.74;41.81;101420.27;112044;1245;20065;-51
2022/03/04 09:15:20;;;;;;;;;9.00;9.00;;;;;21.72;41.84;101421.58;112042;1245;19092;-52
2022/03/04 09:17:46;;;;;;;;;10.00;9.00;;;;;21.71;41.88;101422.56;112025;1245;19134;-54
2022/03/04 09:20:13;;;;;;;;;9.00;9.00;;;;;21.70;41.83;101421.02;112012;1245;20189;-52
2022/03/04 09:22:40;;;;;;;;;9.00;8.33;;;;;21.72;42.08;101425.77;111968;1245;19655;-51
2022/03/04 09:25:05;;;;;;;;;8.00;6.00;;;;;21.75;42.43;101427.41;111990;1245;19168;-52
2022/03/04 09:27:31;;;;;;;;;10.00;9.00;;;;;21.79;42.57;101428.02;112045;1245;20028;-51
2022/03/04 09:29:57;;;;;;;;;12.00;10.00;;;;;21.85;42.95;101432.64;112015;1245;19243;-51
2022/03/04 09:32:23;;;;;;;;;12.00;9.50;;;;;21.89;43.78;101430.75;111995;1245;19428;-51
2022/03/04 09:34:50;;;;;;;;;11.00;8.50;;;;;21.93;44.77;101433.79;112074;1245;21349;-54
2022/03/04 09:37:16;;;;;;;;;8.00;8.00;;;;;21.94;45.47;101438.58;112057;1245;22848;-53
2022/03/04 09:39:42;;;;;;;;;12.00;10.00;;;;;21.96;45.99;101439.70;111917;1245;19134;-53
2022/03/04 09:42:08;;;;;;;;;9.00;8.00;;;;;21.97;45.49;101443.76;111878;1245;19966;-49
2022/03/04 09:44:33;;;;;;;;;14.00;13.00;;;;;21.96;45.73;101446.08;111954;1244;19083;-52
2022/03/04 09:47:00;;;;;;;;;105.50;77.50;;;;;21.95;44.69;101451.10;112036;1245;19389;-51
2022/03/04 09:49:26;;;;;;;;;72.33;49.33;;;;;21.95;44.99;101448.84;111996;1244;20398;-51
2022/03/04 09:51:52;;;;;;;;;77.00;57.33;;;;;21.94;44.41;101449.12;111999;1244;19015;-51
2022/03/04 09:54:17;;;;;;;;;67.67;51.00;;;;;21.92;44.17;101450.09;111944;1245;24776;-50
2022/03/04 09:56:43;;;;;;;;;102.67;73.67;;;;;21.90;44.33;101450.13;111986;1245;20041;-52
2022/03/04 09:59:09;;;;;;;;;97.67;71.00;;;;;21.90;44.18;101452.01;111991;1245;19769;-55
2022/03/04 10:01:35;;;;;;;;;106.00;76.00;;;;;21.91;43.72;101451.64;112018;1245;22931;-51
2022/03/04 10:04:01;;;;;;;;;101.00;75.67;;;;;21.92;43.78;101453.40;112001;1245;20233;-54
2022/03/04 10:06:27;;;;;;;;;102.00;72.00;;;;;21.91;43.81;101450.64;111995;1245;21374;-53
2022/03/04 10:08:53;;;;;;;;;102.50;77.00;;;;;21.90;43.76;101449.27;111979;1245;19541;-54
2022/03/04 10:11:19;;;;;;;;;98.67;71.00;;;;;21.87;44.30;101447.15;112045;1245;20235;-52
2022/03/04 10:13:45;;;;;;;;;96.33;68.33;;;;;21.89;43.91;101449.38;112028;1245;23177;-51
2022/03/04 10:16:11;;;;;;;;;90.33;67.00;;;;;21.92;43.75;101450.50;112006;1245;19231;-53
2022/03/04 10:18:37;;;;;;;;;92.33;62.33;;;;;21.93;44.03;101448.55;112012;1245;20170;-50
2022/03/04 10:21:03;;;;;;;;;82.67;62.00;;;;;21.90;44.11;101447.27;112032;1245;19164;-51
2022/03/04 10:23:30;;;;;;;;;70.67;53.33;;;;;21.91;43.94;101450.84;112032;1245;23195;-51
2022/03/04 10:25:56;;;;;;;;;80.67;58.33;;;;;21.91;43.68;101451.66;112060;1245;20157;-50
2022/03/04 10:28:23;;;;;;;;;81.67;60.00;;;;;21.90;43.78;101451.77;112008;1245;19110;-50
2022/03/04 10:30:49;;;;;;;;;83.67;59.67;;;;;21.87;43.73;101450.83;112126;1245;19606;-53
2022/03/04 10:33:15;;;;;;;;;77.50;58.00;;;;;21.84;43.89;101453.88;112047;1245;19958;-52
2022/03/04 10:35:41;;;;;;;;;77.00;57.67;;;;;21.83;43.97;101455.14;112058;1245;23027;-51
2022/03/04 10:38:07;;;;;;;;;76.50;53.50;;;;;21.82;44.00;101452.69;111988;1245;19328;-54
2022/03/04 10:40:34;;;;;;;;;70.33;50.33;;;;;21.84;43.92;101451.69;111995;1245;23550;-52
2022/03/04 10:43:01;;;;;;;;;66.33;50.67;;;;;21.85;43.85;101452.50;112014;1245;20939;-50
2022/03/04 10:45:27;;;;;;;;;63.00;49.50;;;;;21.86;44.22;101454.58;112029;1245;19645;-56
2022/03/04 10:47:52;;;;;;;;;74.00;55.33;;;;;21.87;44.68;101456.12;111989;1245;19982;-51
2022/03/04 10:50:19;;;;;;;;;72.00;50.00;;;;;21.85;44.88;101457.20;112029;1245;19164;-47
2022/03/04 10:52:45;;;;;;;;;64.67;51.00;;;;;21.84;45.06;101455.20;112039;1245;19510;-52
2022/03/04 10:55:11;;;;;;;;;59.33;46.67;;;;;21.83;45.25;101455.87;112038;1245;20017;-51
2022/03/04 10:57:37;;;;;;;;;64.67;49.67;;;;;21.82;45.12;101454.11;112010;1245;23225;-51
2022/03/04 11:00:04;;;;;;;;;62.33;49.33;;;;;21.80;45.43;101456.85;111895;1245;19283;-50
2022/03/04 11:02:30;;;;;;;;;64.00;47.33;;;;;21.80;45.31;101456.34;112032;1245;20545;-51